Time;durP1;ratioP1;P1;durP2;ratioP2;P2;SDS_P1;SDS_P2;PMS_P1;PMS_P2;Temp;Humidity;BMP_temperature;BMP_pressure;BME280_temperature;BME280_humidity;BME280_pressure;Samples;Min_cycle;Max_cycle;Signal;HPM_P1;HPM_P2
2022/03/25 00:01:02;;;;;;;7.23;6.37;;;;;;;;;;6215969;23;20176;-79
2022/03/25 00:03:31;;;;;;;16.53;12.20;;;;;;;;;;6189959;23;20202;-79
2022/03/25 00:05:59;;;;;;;7.43;6.77;;;;;;;;;;6189827;23;20181;-79
2022/03/25 00:08:28;;;;;;;8.27;4.93;;;;;;;;;;6189963;23;20170;-79
2022/03/25 00:10:56;;;;;;;6.20;5.73;;;;;;;;;;6190082;23;20177;-79
2022/03/25 00:13:25;;;;;;;15.43;10.33;;;;;;;;;;6189785;23;20197;-79
2022/03/25 00:15:54;;;;;;;18.50;10.33;;;;;;;;;;6215684;23;20223;-79
2022/03/25 00:18:23;;;;;;;14.93;8.17;;;;;;;;;;6190186;23;20187;-79
2022/03/25 00:20:51;;;;;;;8.80;8.00;;;;;;;;;;6189941;23;20196;-79
2022/03/25 00:23:20;;;;;;;7.13;6.37;;;;;;;;;;6189691;23;20174;-79
2022/03/25 00:25:49;;;;;;;11.07;10.03;;;;;;;;;;6216040;23;20171;-79
2022/03/25 00:28:17;;;;;;;15.83;13.80;;;;;;;;;;6189573;23;20241;-79
2022/03/25 00:30:46;;;;;;;19.83;12.67;;;;;;;;;;6216593;23;20176;-79
2022/03/25 00:33:16;;;;;;;22.10;12.27;;;;;;;;;;6215884;23;20197;-79
2022/03/25 00:35:44;;;;;;;8.13;5.27;;;;;;;;;;6214752;23;20188;-79
2022/03/25 00:38:13;;;;;;;13.63;9.93;;;;;;;;;;6189862;23;20181;-79
2022/03/25 00:40:41;;;;;;;7.23;4.40;;;;;;;;;;6215631;23;20176;-79
2022/03/25 00:43:10;;;;;;;13.90;10.70;;;;;;;;;;6189242;23;20172;-79
2022/03/25 00:45:38;;;;;;;7.80;5.23;;;;;;;;;;6189336;23;20181;-79
2022/03/25 00:48:07;;;;;;;5.30;4.93;;;;;;;;;;6189536;23;20201;-79
2022/03/25 00:50:37;;;;;;;12.07;8.97;;;;;;;;;;6215967;23;20172;-79
2022/03/25 00:53:06;;;;;;;9.10;4.23;;;;;;;;;;6189484;23;20192;-79
2022/03/25 00:55:34;;;;;;;3.43;3.17;;;;;;;;;;6188836;23;20200;-79
2022/03/25 00:58:03;;;;;;;3.30;2.43;;;;;;;;;;6189740;23;20172;-79
2022/03/25 01:00:31;;;;;;;6.50;4.13;;;;;;;;;;6215990;23;20203;-79
2022/03/25 01:03:00;;;;;;;10.40;7.10;;;;;;;;;;6189114;23;20177;-78
2022/03/25 01:05:28;;;;;;;3.00;2.83;;;;;;;;;;6189111;23;20183;-80
2022/03/25 01:07:58;;;;;;;6.97;5.63;;;;;;;;;;6189497;23;20187;-79
2022/03/25 01:10:26;;;;;;;13.43;8.60;;;;;;;;;;6189020;23;20174;-78
2022/03/25 01:12:55;;;;;;;34.03;17.10;;;;;;;;;;6216005;23;20193;-79
2022/03/25 01:15:23;;;;;;;7.43;6.07;;;;;;;;;;6189477;23;20186;-79
2022/03/25 01:17:52;;;;;;;10.30;9.27;;;;;;;;;;6215971;23;20177;-79
2022/03/25 01:20:20;;;;;;;3.20;2.90;;;;;;;;;;6189392;23;20188;-79
2022/03/25 01:22:49;;;;;;;15.13;8.40;;;;;;;;;;6215326;23;20191;-79
2022/03/25 01:25:19;;;;;;;14.47;9.63;;;;;;;;;;6188905;23;20182;-79
2022/03/25 01:27:47;;;;;;;3.07;2.60;;;;;;;;;;6214102;23;20248;-79
2022/03/25 01:30:16;;;;;;;9.43;4.73;;;;;;;;;;6215509;23;20200;-79
2022/03/25 01:32:44;;;;;;;3.07;2.87;;;;;;;;;;6188884;23;20187;-79
2022/03/25 01:35:13;;;;;;;7.50;4.93;;;;;;;;;;6188850;23;20192;-79
2022/03/25 01:37:42;;;;;;;14.33;6.27;;;;;;;;;;6188946;23;20184;-79
2022/03/25 01:40:10;;;;;;;7.53;5.57;;;;;;;;;;6188971;23;20177;-79
2022/03/25 01:42:42;;;;;;;4.20;3.87;;;;;;;;;;6215199;23;20175;-79
2022/03/25 01:45:12;;;;;;;9.03;8.37;;;;;;;;;;6189252;23;20195;-79
2022/03/25 01:47:41;;;;;;;11.40;8.43;;;;;;;;;;6188630;23;20320;-79
2022/03/25 01:50:14;;;;;;;15.97;9.20;;;;;;;;;;6189013;23;20218;-79
2022/03/25 01:52:43;;;;;;;13.93;8.23;;;;;;;;;;6189331;23;20175;-79
2022/03/25 01:55:15;;;;;;;9.03;5.20;;;;;;;;;;6188645;23;20259;-79
2022/03/25 01:57:46;;;;;;;6.70;6.07;;;;;;;;;;6215564;23;20171;-79
2022/03/25 02:00:15;;;;;;;6.40;5.97;;;;;;;;;;6188845;23;20172;-79
2022/03/25 02:02:44;;;;;;;9.23;8.40;;;;;;;;;;6189248;23;20213;-79
2022/03/25 02:05:13;;;;;;;12.20;9.27;;;;;;;;;;6188857;23;20250;-79
2022/03/25 02:07:42;;;;;;;6.53;6.13;;;;;;;;;;6188963;23;20173;-79
2022/03/25 02:10:10;;;;;;;11.17;3.87;;;;;;;;;;6215108;23;20177;-79
2022/03/25 02:12:40;;;;;;;4.90;3.13;;;;;;;;;;6188350;23;20178;-79
2022/03/25 02:15:10;;;;;;;5.40;2.53;;;;;;;;;;6189177;23;20447;-79
2022/03/25 02:17:39;;;;;;;10.13;8.87;;;;;;;;;;6188407;23;20173;-79
2022/03/25 02:20:09;;;;;;;9.90;6.87;;;;;;;;;;6188975;23;20187;-79
2022/03/25 02:22:39;;;;;;;9.47;8.50;;;;;;;;;;6215520;23;20180;-79
2022/03/25 02:25:09;;;;;;;4.07;3.77;;;;;;;;;;6188864;23;20172;-79
2022/03/25 02:27:38;;;;;;;11.13;9.87;;;;;;;;;;6213723;23;20177;-79
2022/03/25 02:30:08;;;;;;;6.93;4.13;;;;;;;;;;6188589;23;20181;-79
2022/03/25 02:32:39;;;;;;;8.53;7.93;;;;;;;;;;6188985;23;20172;-79
2022/03/25 02:35:08;;;;;;;6.27;5.70;;;;;;;;;;6188762;23;20200;-80
2022/03/25 02:37:36;;;;;;;13.13;8.87;;;;;;;;;;6188742;23;20173;-79
2022/03/25 02:40:07;;;;;;;3.10;3.00;;;;;;;;;;6214742;23;20172;-79
2022/03/25 02:42:35;;;;;;;11.10;8.63;;;;;;;;;;6188804;23;20247;-79
2022/03/25 02:45:04;;;;;;;22.23;16.00;;;;;;;;;;6188611;23;20187;-79
2022/03/25 02:47:32;;;;;;;14.90;8.53;;;;;;;;;;6214801;23;20211;-79
2022/03/25 02:50:01;;;;;;;6.33;4.77;;;;;;;;;;6187710;23;20263;-80
2022/03/25 02:52:29;;;;;;;11.70;7.90;;;;;;;;;;6188071;23;20176;-79
2022/03/25 02:54:57;;;;;;;1.67;1.67;;;;;;;;;;6215020;23;20212;-79
2022/03/25 02:57:27;;;;;;;5.40;5.03;;;;;;;;;;6188785;23;20181;-79
2022/03/25 02:59:56;;;;;;;4.17;3.80;;;;;;;;;;6215144;23;20181;-79
2022/03/25 03:02:24;;;;;;;1.83;1.73;;;;;;;;;;6214514;23;20172;-79
2022/03/25 03:04:53;;;;;;;2.30;2.20;;;;;;;;;;6188749;23;20197;-79
2022/03/25 03:07:21;;;;;;;7.43;6.37;;;;;;;;;;6214825;23;20200;-79
2022/03/25 03:09:50;;;;;;;18.23;9.87;;;;;;;;;;6188418;23;20192;-79
2022/03/25 03:12:18;;;;;;;10.67;5.87;;;;;;;;;;6188713;23;20180;-79
2022/03/25 03:14:48;;;;;;;12.47;6.47;;;;;;;;;;6215132;23;20199;-79
2022/03/25 03:17:16;;;;;;;10.97;8.63;;;;;;;;;;6214634;23;20177;-79
2022/03/25 03:19:45;;;;;;;10.90;8.73;;;;;;;;;;6188255;23;20184;-79
2022/03/25 03:22:13;;;;;;;9.97;7.97;;;;;;;;;;6188397;23;20186;-79
2022/03/25 03:24:42;;;;;;;6.00;5.13;;;;;;;;;;6214818;23;20195;-80
2022/03/25 03:27:11;;;;;;;7.17;6.53;;;;;;;;;;6188217;23;20175;-79
2022/03/25 03:29:39;;;;;;;3.00;2.90;;;;;;;;;;6188642;23;20176;-79
2022/03/25 03:32:10;;;;;;;7.60;6.43;;;;;;;;;;6215204;23;20176;-79
2022/03/25 03:34:38;;;;;;;8.10;7.60;;;;;;;;;;6216534;23;20195;-79
2022/03/25 03:37:06;;;;;;;3.73;3.53;;;;;;;;;;6216941;23;20172;-79
2022/03/25 03:39:35;;;;;;;20.30;13.67;;;;;;;;;;6190195;23;20180;-79
2022/03/25 03:42:03;;;;;;;22.07;14.60;;;;;;;;;;6189983;23;20179;-78
2022/03/25 03:44:32;;;;;;;15.93;13.93;;;;;;;;;;6190574;23;20184;-79
2022/03/25 03:47:00;;;;;;;16.50;14.50;;;;;;;;;;6216191;23;20203;-78
2022/03/25 03:49:30;;;;;;;18.40;14.13;;;;;;;;;;6215358;23;20183;-79
2022/03/25 03:51:58;;;;;;;21.60;16.07;;;;;;;;;;6190104;23;20238;-79
2022/03/25 03:54:27;;;;;;;15.07;12.73;;;;;;;;;;6190064;23;20205;-78
2022/03/25 03:56:56;;;;;;;31.27;20.07;;;;;;;;;;6216150;23;20171;-78
2022/03/25 03:59:24;;;;;;;19.10;13.73;;;;;;;;;;6214975;23;20188;-79
2022/03/25 04:01:53;;;;;;;23.27;17.13;;;;;;;;;;6216460;23;20178;-79
2022/03/25 04:04:21;;;;;;;20.67;14.47;;;;;;;;;;6189662;23;20192;-78
2022/03/25 04:06:51;;;;;;;10.27;4.33;;;;;;;;;;6190127;23;20186;-79
2022/03/25 04:09:19;;;;;;;19.57;11.47;;;;;;;;;;6190083;23;20234;-79
2022/03/25 04:11:48;;;;;;;7.10;6.47;;;;;;;;;;6216219;23;20178;-79
2022/03/25 04:14:16;;;;;;;4.87;4.27;;;;;;;;;;6190129;23;20202;-79
2022/03/25 04:16:45;;;;;;;16.50;12.37;;;;;;;;;;6215917;23;20179;-79
2022/03/25 04:19:13;;;;;;;7.93;7.20;;;;;;;;;;6216084;23;20180;-79
2022/03/25 04:21:41;;;;;;;13.33;11.93;;;;;;;;;;6190189;23;20183;-79
2022/03/25 04:24:11;;;;;;;14.00;10.13;;;;;;;;;;6215933;23;20174;-79
2022/03/25 04:26:39;;;;;;;12.50;9.30;;;;;;;;;;6216109;23;20175;-78
2022/03/25 04:29:08;;;;;;;9.47;6.40;;;;;;;;;;6189816;23;20174;-79
2022/03/25 04:31:36;;;;;;;2.70;2.60;;;;;;;;;;6189911;23;20185;-79
2022/03/25 04:34:05;;;;;;;7.00;6.53;;;;;;;;;;6189499;23;20176;-79
2022/03/25 04:36:34;;;;;;;17.03;12.47;;;;;;;;;;6189443;23;20221;-79
2022/03/25 04:39:03;;;;;;;8.40;7.67;;;;;;;;;;6216307;23;20183;-79
2022/03/25 04:41:32;;;;;;;5.67;5.10;;;;;;;;;;6189452;23;20194;-79
2022/03/25 04:44:01;;;;;;;12.27;11.17;;;;;;;;;;6189135;23;20182;-79
2022/03/25 04:46:29;;;;;;;5.43;4.97;;;;;;;;;;6214334;23;20173;-79
2022/03/25 04:48:58;;;;;;;8.03;7.13;;;;;;;;;;6189174;23;20176;-79
2022/03/25 04:51:26;;;;;;;14.33;11.10;;;;;;;;;;6189593;23;20187;-79
2022/03/25 04:53:54;;;;;;;9.27;6.67;;;;;;;;;;6189290;23;20197;-79
2022/03/25 04:56:23;;;;;;;6.07;5.53;;;;;;;;;;6189512;23;20209;-79
2022/03/25 04:58:52;;;;;;;8.57;7.73;;;;;;;;;;6189454;23;20178;-79
2022/03/25 05:01:21;;;;;;;4.30;3.30;;;;;;;;;;6189319;23;20230;-79
2022/03/25 05:03:50;;;;;;;2.97;2.50;;;;;;;;;;6188780;23;20194;-79
2022/03/25 05:06:18;;;;;;;4.47;3.30;;;;;;;;;;6189142;23;20170;-79
2022/03/25 05:08:46;;;;;;;9.93;9.17;;;;;;;;;;6215329;23;20175;-78
2022/03/25 05:11:15;;;;;;;10.67;7.90;;;;;;;;;;6189792;23;20185;-79
2022/03/25 05:13:43;;;;;;;9.33;6.67;;;;;;;;;;6189305;23;20203;-78
2022/03/25 05:16:13;;;;;;;6.43;5.90;;;;;;;;;;6215237;23;20191;-78
2022/03/25 05:18:41;;;;;;;4.47;4.17;;;;;;;;;;6189272;23;20258;-79
2022/03/25 05:21:10;;;;;;;7.43;6.87;;;;;;;;;;6189130;23;20233;-79
2022/03/25 05:23:39;;;;;;;12.23;9.37;;;;;;;;;;6189426;23;20178;-80
2022/03/25 05:26:07;;;;;;;7.40;6.70;;;;;;;;;;6188947;23;20171;-80
2022/03/25 05:28:38;;;;;;;9.93;8.90;;;;;;;;;;6214373;23;20173;-79
2022/03/25 05:31:06;;;;;;;7.67;7.07;;;;;;;;;;6189330;23;20186;-80
2022/03/25 05:33:36;;;;;;;7.00;6.47;;;;;;;;;;6189060;23;20185;-80
2022/03/25 05:36:05;;;;;;;11.47;5.20;;;;;;;;;;6188891;23;20202;-80
2022/03/25 05:38:34;;;;;;;6.87;6.27;;;;;;;;;;6215450;23;20175;-80
2022/03/25 05:41:02;;;;;;;15.33;3.30;;;;;;;;;;6189038;23;20179;-80
2022/03/25 05:43:30;;;;;;;4.30;4.10;;;;;;;;;;6188750;23;20171;-80
2022/03/25 05:45:59;;;;;;;3.97;3.77;;;;;;;;;;6188942;23;20205;-79
2022/03/25 05:48:27;;;;;;;6.10;5.50;;;;;;;;;;6188609;23;20233;-80
2022/03/25 05:50:57;;;;;;;0.80;0.80;;;;;;;;;;6189263;23;20172;-80
2022/03/25 05:53:26;;;;;;;2.90;2.70;;;;;;;;;;6188911;23;20183;-79
2022/03/25 05:55:55;;;;;;;16.23;6.23;;;;;;;;;;6188942;23;20216;-79
2022/03/25 05:58:24;;;;;;;5.57;5.20;;;;;;;;;;6214937;23;20170;-79
2022/03/25 06:00:52;;;;;;;3.63;3.43;;;;;;;;;;6188740;23;20175;-80
2022/03/25 06:03:20;;;;;;;10.27;8.60;;;;;;;;;;6188517;23;20195;-79
2022/03/25 06:05:49;;;;;;;13.97;12.33;;;;;;;;;;6188660;23;20188;-80
2022/03/25 06:08:19;;;;;;;4.83;4.53;;;;;;;;;;6213624;23;20182;-79
2022/03/25 06:10:47;;;;;;;7.57;6.97;;;;;;;;;;6215234;23;20171;-79
2022/03/25 06:13:16;;;;;;;8.10;4.63;;;;;;;;;;6188062;23;20182;-79
2022/03/25 06:15:46;;;;;;;12.47;6.87;;;;;;;;;;6189048;23;20219;-80
2022/03/25 06:18:14;;;;;;;15.20;7.23;;;;;;;;;;6188677;23;20201;-80
2022/03/25 06:20:43;;;;;;;12.10;5.97;;;;;;;;;;6214987;23;20175;-79
2022/03/25 06:23:11;;;;;;;16.73;10.03;;;;;;;;;;6214538;23;20174;-79
2022/03/25 06:25:41;;;;;;;15.80;13.27;;;;;;;;;;6189009;23;20168;-79
2022/03/25 06:28:10;;;;;;;6.90;5.77;;;;;;;;;;6213710;23;20178;-81
2022/03/25 06:30:39;;;;;;;15.50;10.50;;;;;;;;;;6188301;23;20182;-79
2022/03/25 06:33:09;;;;;;;20.07;9.63;;;;;;;;;;6214944;23;20177;-79
2022/03/25 06:35:39;;;;;;;10.10;7.70;;;;;;;;;;6188793;23;20181;-79
2022/03/25 06:38:08;;;;;;;11.43;8.20;;;;;;;;;;6188010;23;20178;-80
2022/03/25 06:40:36;;;;;;;19.53;10.37;;;;;;;;;;6189046;23;20178;-80
2022/03/25 06:43:06;;;;;;;7.30;6.50;;;;;;;;;;6187954;23;20246;-81
2022/03/25 06:45:36;;;;;;;9.67;8.40;;;;;;;;;;6188423;23;20206;-80
2022/03/25 06:48:05;;;;;;;16.40;10.97;;;;;;;;;;6187854;23;20243;-80
2022/03/25 06:50:33;;;;;;;4.93;4.53;;;;;;;;;;6188474;23;20265;-80
2022/03/25 06:53:04;;;;;;;13.00;9.70;;;;;;;;;;6188721;23;20181;-80
2022/03/25 06:55:33;;;;;;;15.97;12.40;;;;;;;;;;6214483;23;20172;-80
2022/03/25 06:58:05;;;;;;;13.87;7.90;;;;;;;;;;6187801;23;20187;-79
2022/03/25 07:00:35;;;;;;;6.47;5.90;;;;;;;;;;6213402;23;20176;-80
2022/03/25 07:03:04;;;;;;;14.23;12.73;;;;;;;;;;6186865;23;20210;-80
2022/03/25 07:05:36;;;;;;;9.83;9.00;;;;;;;;;;6213738;23;20184;-80
2022/03/25 07:08:04;;;;;;;7.00;6.13;;;;;;;;;;6189769;23;20177;-80
2022/03/25 07:10:36;;;;;;;18.60;7.77;;;;;;;;;;6189543;23;20198;-80
2022/03/25 07:13:04;;;;;;;14.97;13.53;;;;;;;;;;6190377;23;20175;-80
2022/03/25 07:15:34;;;;;;;13.70;8.27;;;;;;;;;;6190425;23;20170;-80
2022/03/25 07:18:03;;;;;;;17.93;9.70;;;;;;;;;;6190402;23;20195;-80
2022/03/25 07:20:32;;;;;;;1.03;1.03;;;;;;;;;;6216707;23;20178;-80
2022/03/25 07:23:00;;;;;;;17.33;10.23;;;;;;;;;;6190164;23;20186;-80
2022/03/25 07:25:31;;;;;;;3.53;3.43;;;;;;;;;;6190135;23;20236;-80
2022/03/25 07:27:59;;;;;;;8.13;7.33;;;;;;;;;;6190790;23;20272;-79
2022/03/25 07:30:28;;;;;;;7.77;7.17;;;;;;;;;;6190695;23;20173;-80
2022/03/25 07:32:58;;;;;;;14.63;12.83;;;;;;;;;;6190552;23;20185;-80
2022/03/25 07:35:27;;;;;;;3.90;3.70;;;;;;;;;;6190289;23;20172;-80
2022/03/25 07:37:56;;;;;;;8.60;7.60;;;;;;;;;;6190125;23;20200;-80
2022/03/25 07:40:24;;;;;;;9.13;8.10;;;;;;;;;;6189997;23;20190;-80
2022/03/25 07:42:53;;;;;;;21.93;12.03;;;;;;;;;;6217012;23;20240;-80
2022/03/25 07:45:21;;;;;;;27.00;15.87;;;;;;;;;;6190097;23;20188;-80
2022/03/25 07:47:52;;;;;;;16.63;10.37;;;;;;;;;;6189878;23;20205;-80
2022/03/25 07:50:22;;;;;;;14.13;8.40;;;;;;;;;;6214860;23;20179;-78
2022/03/25 07:52:51;;;;;;;22.57;12.63;;;;;;;;;;6190053;23;20217;-80
2022/03/25 07:55:20;;;;;;;30.17;14.80;;;;;;;;;;6189767;23;20186;-80
2022/03/25 07:57:49;;;;;;;15.00;10.87;;;;;;;;;;6214982;23;20213;-81
2022/03/25 08:00:19;;;;;;;20.97;14.70;;;;;;;;;;6189796;23;20177;-80
2022/03/25 08:02:48;;;;;;;33.10;18.00;;;;;;;;;;6190052;23;20247;-81
2022/03/25 08:05:17;;;;;;;31.53;19.23;;;;;;;;;;6215937;23;20221;-80
2022/03/25 08:07:48;;;;;;;17.57;13.17;;;;;;;;;;6215836;23;20177;-80
2022/03/25 08:10:18;;;;;;;28.40;18.13;;;;;;;;;;6215733;23;20176;-80
2022/03/25 08:12:47;;;;;;;36.17;20.93;;;;;;;;;;6189752;23;20181;-80
2022/03/25 08:15:22;;;;;;;19.57;12.63;;;;;;;;;;6214452;23;20178;-81
2022/03/25 08:17:51;;;;;;;22.60;15.53;;;;;;;;;;6213416;23;20202;-82
2022/03/25 08:20:23;;;;;;;14.23;9.60;;;;;;;;;;6215353;23;20197;-80
2022/03/25 08:22:55;;;;;;;10.57;9.40;;;;;;;;;;6216088;23;20175;-83
2022/03/25 08:28:09;;;;;;;9.23;8.30;;;;;;;;;;6213575;23;20181;-84
2022/03/25 08:30:38;;;;;;;27.90;16.30;;;;;;;;;;6185688;23;20174;-82
2022/03/25 08:33:07;;;;;;;20.40;11.50;;;;;;;;;;6213313;23;20178;-82
2022/03/25 08:35:37;;;;;;;15.53;10.37;;;;;;;;;;6214364;23;20296;-83
2022/03/25 08:38:07;;;;;;;28.83;16.43;;;;;;;;;;6187821;23;20196;-82
2022/03/25 08:40:42;;;;;;;13.90;8.40;;;;;;;;;;6187998;23;20206;-82
2022/03/25 08:43:31;;;;;;;29.77;17.47;;;;;;;;;;6187970;23;20178;-82
2022/03/25 08:45:59;;;;;;;22.93;14.70;;;;;;;;;;6212159;23;20228;-83
2022/03/25 08:48:29;;;;;;;33.70;17.60;;;;;;;;;;6186836;23;20202;-87
2022/03/25 08:51:00;;;;;;;29.93;16.60;;;;;;;;;;6216441;23;20224;-88
2022/03/25 08:53:31;;;;;;;29.53;18.00;;;;;;;;;;6196543;23;20262;-87
2022/03/25 08:56:02;;;;;;;31.57;21.67;;;;;;;;;;6219178;23;20193;-87
2022/03/25 08:58:33;;;;;;;21.77;14.67;;;;;;;;;;6195013;23;20202;-88
2022/03/25 09:01:02;;;;;;;46.60;15.47;;;;;;;;;;6213968;23;20210;-87
2022/03/25 09:03:32;;;;;;;13.73;9.40;;;;;;;;;;6193390;23;20206;-87
2022/03/25 09:06:01;;;;;;;17.70;11.13;;;;;;;;;;6193254;23;20179;-87
2022/03/25 09:08:36;;;;;;;25.83;17.27;;;;;;;;;;6217989;23;20170;-87
2022/03/25 09:11:05;;;;;;;25.17;12.83;;;;;;;;;;6191815;23;20184;-87
2022/03/25 09:13:35;;;;;;;27.23;15.23;;;;;;;;;;6190160;23;20272;-86
2022/03/25 09:16:06;;;;;;;13.93;10.57;;;;;;;;;;6214211;23;20194;-86
2022/03/25 09:18:36;;;;;;;21.00;13.33;;;;;;;;;;6190134;23;20198;-87
2022/03/25 09:21:39;;;;;;;24.03;11.40;;;;;;;;;;6188280;23;20178;-88
2022/03/25 09:24:16;;;;;;;12.80;8.90;;;;;;;;;;6213713;23;20236;-87
2022/03/25 09:26:45;;;;;;;25.07;12.47;;;;;;;;;;6196571;23;20241;-88
2022/03/25 09:29:14;;;;;;;23.10;13.73;;;;;;;;;;6193964;23;20170;-87
2022/03/25 09:31:51;;;;;;;17.40;9.17;;;;;;;;;;6190461;23;20178;-87
2022/03/25 09:37:37;;;;;;;22.37;13.23;;;;;;;;;;6190169;23;20195;-88
2022/03/25 09:40:12;;;;;;;13.10;10.17;;;;;;;;;;6192235;23;20180;-87
2022/03/25 09:42:52;;;;;;;11.03;8.77;;;;;;;;;;6212964;23;20175;-87
2022/03/25 09:45:30;;;;;;;13.53;8.40;;;;;;;;;;6189541;23;20178;-88
2022/03/25 09:48:00;;;;;;;22.23;11.20;;;;;;;;;;6189368;23;20216;-87
2022/03/25 09:50:45;;;;;;;12.07;8.97;;;;;;;;;;6214320;23;20199;-88
2022/03/25 09:54:00;;;;;;;20.07;11.17;;;;;;;;;;6189523;23;20182;-88
2022/03/25 09:56:32;;;;;;;19.30;14.53;;;;;;;;;;6185026;23;20184;-87
2022/03/25 09:59:02;;;;;;;17.63;11.83;;;;;;;;;;6213513;23;20203;-87
2022/03/25 10:01:31;;;;;;;23.47;14.93;;;;;;;;;;6190257;23;20175;-86
2022/03/25 10:04:00;;;;;;;11.40;8.70;;;;;;;;;;6216138;23;20200;-87
2022/03/25 10:06:36;;;;;;;10.20;6.97;;;;;;;;;;6190439;23;20202;-87
2022/03/25 10:09:08;;;;;;;17.30;13.43;;;;;;;;;;6187424;23;20178;-86
2022/03/25 10:11:38;;;;;;;20.30;11.67;;;;;;;;;;6211741;23;20184;-87
2022/03/25 10:14:15;;;;;;;20.13;13.20;;;;;;;;;;6212622;23;20190;-87
2022/03/25 10:16:45;;;;;;;19.63;12.77;;;;;;;;;;6212881;23;20180;-87
2022/03/25 10:19:17;;;;;;;13.10;10.40;;;;;;;;;;6187727;23;20203;-87
2022/03/25 10:21:53;;;;;;;19.47;15.30;;;;;;;;;;6212562;23;20199;-86
2022/03/25 10:24:38;;;;;;;24.20;13.27;;;;;;;;;;6188191;23;20180;-87
2022/03/25 10:27:17;;;;;;;19.37;12.70;;;;;;;;;;6212794;23;20183;-86
2022/03/25 10:29:47;;;;;;;21.07;14.07;;;;;;;;;;6188065;23;20250;-87
2022/03/25 10:32:18;;;;;;;10.33;7.57;;;;;;;;;;6213200;23;20175;-86
2022/03/25 10:35:00;;;;;;;11.80;9.43;;;;;;;;;;6188277;23;20179;-87
2022/03/25 10:37:29;;;;;;;22.13;14.03;;;;;;;;;;6187611;23;20222;-87
2022/03/25 10:39:58;;;;;;;21.13;13.10;;;;;;;;;;6188538;23;20207;-86
2022/03/25 10:42:28;;;;;;;27.43;10.97;;;;;;;;;;6190073;23;20207;-87
2022/03/25 10:45:00;;;;;;;16.80;9.90;;;;;;;;;;6215397;23;20179;-87
2022/03/25 10:47:29;;;;;;;9.67;6.37;;;;;;;;;;6185041;23;20227;-87
2022/03/25 10:50:13;;;;;;;12.13;7.90;;;;;;;;;;6185050;23;20173;-87
2022/03/25 10:52:43;;;;;;;10.13;6.43;;;;;;;;;;6185140;23;20176;-87
2022/03/25 10:55:16;;;;;;;15.47;8.43;;;;;;;;;;6185455;23;20179;-87
2022/03/25 10:57:54;;;;;;;15.43;9.33;;;;;;;;;;6185340;23;20225;-87
2022/03/25 11:00:23;;;;;;;19.03;11.43;;;;;;;;;;6184883;23;20269;-87
2022/03/25 11:02:52;;;;;;;18.60;10.17;;;;;;;;;;6185506;23;20275;-87
2022/03/25 11:05:21;;;;;;;8.37;7.27;;;;;;;;;;6210250;23;20281;-87
2022/03/25 11:07:51;;;;;;;7.40;6.47;;;;;;;;;;6185298;23;20202;-86
2022/03/25 11:10:22;;;;;;;19.33;7.33;;;;;;;;;;6185226;23;20178;-87
2022/03/25 11:12:52;;;;;;;10.43;7.90;;;;;;;;;;6185126;23;20189;-87
2022/03/25 11:15:22;;;;;;;14.57;9.47;;;;;;;;;;6186751;23;20170;-87
2022/03/25 11:17:51;;;;;;;14.40;9.20;;;;;;;;;;6185434;23;20182;-87
2022/03/25 11:20:22;;;;;;;19.67;13.20;;;;;;;;;;6184791;23;20251;-87
2022/03/25 11:22:59;;;;;;;15.17;8.17;;;;;;;;;;6210359;23;20185;-87
2022/03/25 11:25:31;;;;;;;18.70;10.57;;;;;;;;;;6184814;23;20185;-87
2022/03/25 11:28:01;;;;;;;19.37;8.03;;;;;;;;;;6184809;23;20182;-87
2022/03/25 11:30:35;;;;;;;21.20;11.77;;;;;;;;;;6185100;23;20182;-87
2022/03/25 11:33:06;;;;;;;18.63;10.53;;;;;;;;;;6184948;23;20188;-86
2022/03/25 11:35:36;;;;;;;14.87;8.70;;;;;;;;;;6185592;23;20181;-86
2022/03/25 11:38:18;;;;;;;22.43;11.57;;;;;;;;;;6184230;23;20264;-85
2022/03/25 11:40:47;;;;;;;16.93;9.30;;;;;;;;;;6208145;23;20184;-88
2022/03/25 11:43:16;;;;;;;5.83;5.27;;;;;;;;;;6184353;23;20178;-88
2022/03/25 11:45:47;;;;;;;11.73;7.93;;;;;;;;;;6182219;23;20185;-87
2022/03/25 11:48:35;;;;;;;15.03;8.13;;;;;;;;;;6183905;23;20281;-87
2022/03/25 11:51:24;;;;;;;19.17;10.80;;;;;;;;;;6184693;23;20268;-87
2022/03/25 11:53:52;;;;;;;17.73;12.10;;;;;;;;;;6184397;23;20178;-87
2022/03/25 11:56:21;;;;;;;10.90;6.43;;;;;;;;;;6209001;23;20189;-87
2022/03/25 11:59:03;;;;;;;9.40;6.23;;;;;;;;;;6183779;23;20198;-87
2022/03/25 12:01:33;;;;;;;22.50;13.83;;;;;;;;;;6185214;23;20237;-87
2022/03/25 12:04:02;;;;;;;8.83;5.17;;;;;;;;;;6183927;23;20281;-87
2022/03/25 12:06:32;;;;;;;14.60;8.07;;;;;;;;;;6184477;23;20178;-87
2022/03/25 12:09:02;;;;;;;11.27;6.17;;;;;;;;;;6184904;23;20201;-87
2022/03/25 12:11:50;;;;;;;12.20;8.83;;;;;;;;;;6184833;23;20183;-86
2022/03/25 12:14:36;;;;;;;11.47;6.00;;;;;;;;;;6186160;23;20186;-88
2022/03/25 12:17:11;;;;;;;8.20;5.90;;;;;;;;;;6185013;23;20187;-87
2022/03/25 12:19:47;;;;;;;6.03;5.40;;;;;;;;;;6184644;23;20194;-87
2022/03/25 12:22:40;;;;;;;10.00;6.53;;;;;;;;;;6184738;23;20200;-87
2022/03/25 12:25:23;;;;;;;13.33;7.13;;;;;;;;;;6178583;23;20182;-87
2022/03/25 12:27:53;;;;;;;9.40;5.23;;;;;;;;;;6184874;23;20179;-87
2022/03/25 12:30:25;;;;;;;12.93;7.30;;;;;;;;;;6185067;23;20261;-87
2022/03/25 12:33:06;;;;;;;12.00;7.97;;;;;;;;;;6184914;23;20213;-88
2022/03/25 12:35:37;;;;;;;6.57;5.90;;;;;;;;;;6185170;23;20175;-88
2022/03/25 12:38:15;;;;;;;12.13;8.53;;;;;;;;;;6184806;23;20234;-88
2022/03/25 12:40:45;;;;;;;12.33;5.77;;;;;;;;;;6185146;23;20194;-88
2022/03/25 12:43:48;;;;;;;5.27;4.70;;;;;;;;;;6184713;23;20221;-88
2022/03/25 12:46:37;;;;;;;11.90;8.67;;;;;;;;;;6183538;23;20190;-88
2022/03/25 12:49:09;;;;;;;11.93;7.43;;;;;;;;;;6184918;23;20287;-87
2022/03/25 12:51:37;;;;;;;12.90;8.37;;;;;;;;;;6184895;23;20262;-88
2022/03/25 12:54:16;;;;;;;10.77;5.83;;;;;;;;;;6184478;23;20270;-87
2022/03/25 12:57:00;;;;;;;13.70;6.77;;;;;;;;;;6185673;23;20217;-87
2022/03/25 12:59:55;;;;;;;10.27;7.93;;;;;;;;;;6184742;23;20229;-88
2022/03/25 13:02:30;;;;;;;14.47;8.23;;;;;;;;;;6185484;23;20204;-89
2022/03/25 13:05:17;;;;;;;17.13;9.00;;;;;;;;;;6182015;23;20202;-89
2022/03/25 13:07:47;;;;;;;11.37;7.43;;;;;;;;;;6183842;23;20379;-88
2022/03/25 13:10:16;;;;;;;10.63;7.33;;;;;;;;;;6183347;23;20178;-87
2022/03/25 13:12:50;;;;;;;12.77;8.57;;;;;;;;;;6183914;23;20185;-87
2022/03/25 13:15:23;;;;;;;17.73;9.67;;;;;;;;;;6184436;23;20174;-89
2022/03/25 13:17:53;;;;;;;15.70;9.53;;;;;;;;;;6183246;23;20254;-89
2022/03/25 13:20:25;;;;;;;8.73;5.80;;;;;;;;;;6184043;23;20196;-87
2022/03/25 13:22:56;;;;;;;8.93;5.17;;;;;;;;;;6185324;23;20171;-87
2022/03/25 13:25:28;;;;;;;6.80;4.80;;;;;;;;;;6178242;23;20183;-87
2022/03/25 13:27:59;;;;;;;10.43;7.50;;;;;;;;;;6181342;23;20230;-87
2022/03/25 13:30:28;;;;;;;9.53;6.53;;;;;;;;;;6176849;23;20175;-87
2022/03/25 13:32:58;;;;;;;10.93;6.63;;;;;;;;;;6177373;23;20189;-88
2022/03/25 13:35:38;;;;;;;13.57;8.57;;;;;;;;;;6177563;23;20183;-88
2022/03/25 13:38:14;;;;;;;4.70;4.17;;;;;;;;;;6176934;23;20197;-88
2022/03/25 13:41:02;;;;;;;10.97;7.93;;;;;;;;;;6177712;23;20194;-90
2022/03/25 13:43:35;;;;;;;9.80;7.80;;;;;;;;;;6177627;23;20183;-90
2022/03/25 13:46:05;;;;;;;13.27;9.30;;;;;;;;;;6180636;23;20265;-89
2022/03/25 13:48:38;;;;;;;8.70;6.83;;;;;;;;;;6175842;23;20214;-89
2022/03/25 13:51:18;;;;;;;14.83;8.83;;;;;;;;;;6182917;23;20222;-88
2022/03/25 13:53:47;;;;;;;12.23;6.50;;;;;;;;;;6185308;23;20257;-89
2022/03/25 13:56:17;;;;;;;20.13;8.47;;;;;;;;;;6182430;23;20270;-88
2022/03/25 13:58:48;;;;;;;18.40;10.27;;;;;;;;;;6182308;23;20182;-90
2022/03/25 14:01:35;;;;;;;14.63;9.63;;;;;;;;;;6206290;23;20199;-88
2022/03/25 14:04:09;;;;;;;10.50;5.97;;;;;;;;;;6188695;23;20227;-91
2022/03/25 14:06:50;;;;;;;19.77;11.67;;;;;;;;;;6187024;23;20186;-92
2022/03/25 14:09:28;;;;;;;18.23;10.90;;;;;;;;;;6177499;23;20246;-90
2022/03/25 14:11:57;;;;;;;15.17;9.37;;;;;;;;;;6176528;23;20179;-91
2022/03/25 14:14:29;;;;;;;22.43;10.87;;;;;;;;;;6182257;23;20186;-90
2022/03/25 14:16:59;;;;;;;15.97;9.67;;;;;;;;;;6203562;23;20186;-91
2022/03/25 14:19:28;;;;;;;20.33;13.43;;;;;;;;;;6177651;23;20260;-90
2022/03/25 14:22:01;;;;;;;25.03;17.70;;;;;;;;;;6175025;23;20209;-91
2022/03/25 14:24:34;;;;;;;13.43;9.30;;;;;;;;;;6201654;23;20198;-90
2022/03/25 14:27:09;;;;;;;11.83;7.60;;;;;;;;;;6176257;23;20193;-90
2022/03/25 14:29:39;;;;;;;15.60;10.87;;;;;;;;;;6176766;23;20214;-89
2022/03/25 14:32:08;;;;;;;14.83;9.40;;;;;;;;;;6202380;23;20270;-90
2022/03/25 14:34:39;;;;;;;17.67;10.83;;;;;;;;;;6177419;23;20178;-91
2022/03/25 14:37:10;;;;;;;19.87;11.53;;;;;;;;;;6176852;23;20196;-90
2022/03/25 14:39:39;;;;;;;12.87;8.27;;;;;;;;;;6202416;23;20182;-89
2022/03/25 14:42:08;;;;;;;14.73;9.93;;;;;;;;;;6176769;23;20247;-90
2022/03/25 14:44:37;;;;;;;13.60;8.47;;;;;;;;;;6177276;23;20192;-89
2022/03/25 14:47:11;;;;;;;16.20;11.40;;;;;;;;;;6178905;23;20185;-91
2022/03/25 14:50:04;;;;;;;15.47;9.37;;;;;;;;;;6152143;23;20188;-89
2022/03/25 14:52:37;;;;;;;18.53;11.30;;;;;;;;;;6183703;23;20571;-91
2022/03/25 14:55:07;;;;;;;13.80;6.27;;;;;;;;;;6209391;23;20182;-90
2022/03/25 14:57:38;;;;;;;15.00;9.73;;;;;;;;;;6181830;23;20281;-90
2022/03/25 15:00:10;;;;;;;17.67;7.00;;;;;;;;;;6183832;23;20201;-91